createdAt,value
2016-10-03T00:00:39.552Z,736.35
2016-10-03T00:01:39.531Z,736.25
2016-10-03T00:02:39.505Z,736.32
2016-10-03T00:03:39.490Z,736.44
2016-10-03T00:04:39.464Z,736.66
2016-10-03T00:05:39.444Z,736.41
2016-10-03T00:06:39.432Z,736.69
2016-10-03T00:07:39.412Z,736.6
2016-10-03T00:08:39.385Z,736.54
2016-10-03T00:09:39.373Z,736.73
2016-10-03T00:10:39.345Z,736.46
2016-10-03T00:11:39.333Z,736.59
2016-10-03T00:12:39.307Z,736.67
2016-10-03T00:13:39.293Z,736.59
2016-10-03T00:14:39.266Z,736.52
2016-10-03T00:15:39.246Z,736.59
2016-10-03T00:16:39.226Z,736.46
2016-10-03T00:17:39.206Z,736.65
2016-10-03T00:18:39.194Z,736.33
2016-10-03T00:19:39.174Z,736.53
2016-10-03T00:20:39.154Z,736.53
2016-10-03T00:21:39.128Z,736.44
2016-10-03T00:22:39.107Z,736.62
2016-10-03T00:23:39.095Z,736.56
2016-10-03T00:24:39.068Z,736.35
2016-10-03T00:25:39.054Z,736.33
2016-10-03T00:26:39.035Z,736.49
2016-10-03T00:27:39.007Z,736.42
2016-10-03T00:28:38.994Z,736.6
2016-10-03T00:29:38.973Z,736.56
2016-10-03T00:30:38.947Z,736.76
2016-10-03T00:31:38.934Z,736.57
2016-10-03T00:32:38.913Z,736.56
2016-10-03T00:33:38.894Z,736.43
2016-10-03T00:34:38.873Z,736.65
2016-10-03T00:35:38.847Z,736.64
2016-10-03T00:36:38.832Z,736.38
2016-10-03T00:37:38.807Z,736.41
2016-10-03T00:38:38.787Z,736.22
2016-10-03T00:39:38.773Z,736.48
2016-10-03T00:40:38.753Z,736.68
2016-10-03T00:41:38.733Z,736.75
2016-10-03T00:42:38.713Z,736.6
2016-10-03T00:43:38.691Z,736.77
2016-10-03T00:44:38.666Z,736.51
2016-10-03T00:45:38.645Z,736.57
2016-10-03T00:46:38.632Z,736.61
2016-10-03T00:47:38.604Z,736.72
2016-10-03T00:48:38.591Z,736.79
2016-10-03T00:49:38.571Z,736.53
2016-10-03T00:50:38.550Z,736.47
2016-10-03T00:51:38.531Z,736.46
2016-10-03T00:52:38.511Z,736.75
2016-10-03T00:53:38.491Z,736.29
2016-10-03T00:54:38.463Z,736.47
2016-10-03T00:55:38.450Z,736.5
2016-10-03T00:56:38.431Z,736.59
2016-10-03T00:57:38.404Z,736.76
2016-10-03T00:58:38.383Z,736.59
2016-10-03T00:59:38.364Z,736.54
2016-10-03T01:00:38.351Z,736.53
2016-10-03T01:01:38.331Z,736.61
2016-10-03T01:02:38.305Z,736.43
2016-10-03T01:03:38.285Z,736.5
2016-10-03T01:04:38.272Z,736.37
2016-10-03T01:05:38.245Z,736.41
2016-10-03T01:06:38.225Z,736.68
2016-10-03T01:07:38.206Z,736.48
2016-10-03T01:08:38.187Z,736.46
2016-10-03T01:09:38.166Z,736.49
2016-10-03T01:10:38.152Z,736.44
2016-10-03T01:11:38.132Z,736.41
2016-10-03T01:12:38.112Z,736.57
2016-10-03T01:13:38.085Z,736.51
2016-10-03T01:14:38.072Z,736.45
2016-10-03T01:15:38.046Z,736.44
2016-10-03T01:16:38.032Z,736.54
2016-10-03T01:17:38.006Z,736.35
2016-10-03T01:18:37.984Z,736.45
2016-10-03T01:19:37.972Z,736.64
2016-10-03T01:20:37.945Z,736.53
2016-10-03T01:21:37.924Z,736.48
2016-10-03T01:22:37.906Z,736.46
2016-10-03T01:23:37.891Z,736.63
2016-10-03T01:24:37.871Z,736.52
2016-10-03T01:25:37.851Z,736.33
2016-10-03T01:26:37.832Z,736.36
2016-10-03T01:27:37.810Z,736.4
2016-10-03T01:28:37.791Z,736.49
2016-10-03T01:29:37.771Z,736.47
2016-10-03T01:30:37.744Z,736.43
2016-10-03T01:31:37.724Z,736.57
2016-10-03T01:32:37.706Z,736.39
2016-10-03T01:33:37.687Z,736.49
2016-10-03T01:34:37.665Z,736.49
2016-10-03T01:35:37.653Z,736.46
2016-10-03T01:36:37.626Z,736.6
2016-10-03T01:37:37.606Z,736.31
2016-10-03T01:38:37.586Z,736.55
2016-10-03T01:39:37.567Z,736.4
2016-10-03T01:40:37.553Z,736.47
2016-10-03T01:41:37.532Z,736.51
2016-10-03T01:42:37.513Z,736.51
2016-10-03T01:43:37.494Z,736.4
2016-10-03T01:44:37.474Z,736.44
2016-10-03T01:45:37.447Z,736.65
2016-10-03T01:46:37.426Z,736.54
2016-10-03T01:47:37.416Z,736.36
2016-10-03T01:48:37.388Z,736.54
2016-10-03T01:49:37.374Z,736.45
2016-10-03T01:50:37.347Z,736.62
2016-10-03T01:51:37.334Z,736.49
2016-10-03T01:52:37.308Z,736.61
2016-10-03T01:53:37.287Z,736.58
2016-10-03T01:54:37.274Z,736.41
2016-10-03T01:55:37.259Z,736.57
2016-10-03T01:56:37.236Z,736.3
2016-10-03T01:57:37.213Z,736.65
2016-10-03T01:58:37.185Z,736.35
2016-10-03T01:59:37.173Z,736.48
2016-10-03T02:00:37.152Z,736.54
2016-10-03T02:01:37.133Z,736.53
2016-10-03T02:02:37.113Z,736.51
2016-10-03T02:03:37.085Z,736.35
2016-10-03T02:04:37.073Z,736.56
2016-10-03T02:05:37.046Z,736.52
2016-10-03T02:06:37.026Z,736.52
2016-10-03T02:07:37.004Z,736.64
2016-10-03T02:08:36.998Z,736.61
2016-10-03T02:09:36.972Z,736.62
2016-10-03T02:10:36.945Z,736.58
2016-10-03T02:11:36.926Z,736.37
2016-10-03T02:12:36.905Z,736.61
2016-10-03T02:13:36.891Z,736.66
2016-10-03T02:14:36.871Z,736.67
2016-10-03T02:15:36.844Z,736.64
2016-10-03T02:16:36.831Z,736.66
2016-10-03T02:17:36.812Z,736.5
2016-10-03T02:18:36.791Z,736.61
2016-10-03T02:19:36.764Z,736.62
2016-10-03T02:20:36.750Z,736.7
2016-10-03T02:21:36.730Z,736.72
2016-10-03T02:22:36.709Z,736.91
2016-10-03T02:23:36.688Z,736.63
2016-10-03T02:24:36.669Z,736.65
2016-10-03T02:25:36.648Z,736.71
2016-10-03T02:26:36.628Z,736.55
2016-10-03T02:27:36.601Z,736.61
2016-10-03T02:28:36.586Z,736.68
2016-10-03T02:29:36.566Z,736.68
2016-10-03T02:30:36.539Z,736.69
2016-10-03T02:31:36.526Z,736.64
2016-10-03T02:32:36.499Z,736.66
2016-10-03T02:33:36.478Z,736.56
2016-10-03T02:34:36.458Z,736.55
2016-10-03T02:35:36.443Z,736.5
2016-10-03T02:36:36.416Z,736.6
2016-10-03T02:37:36.403Z,736.65
2016-10-03T02:38:36.382Z,736.71
2016-10-03T02:39:36.362Z,736.69
2016-10-03T02:40:36.341Z,736.62
2016-10-03T02:41:36.321Z,736.75
2016-10-03T02:42:36.293Z,736.57
2016-10-03T02:43:36.274Z,736.84
2016-10-03T02:44:36.257Z,736.62
2016-10-03T02:45:36.231Z,736.66
2016-10-03T02:46:36.211Z,736.43
2016-10-03T02:47:36.247Z,736.54
2016-10-03T02:48:36.171Z,736.63
2016-10-03T02:49:36.157Z,736.46
2016-10-03T02:50:36.131Z,736.44
2016-10-03T02:51:36.121Z,736.65
2016-10-03T02:52:36.088Z,736.44
2016-10-03T02:53:36.070Z,736.74
2016-10-03T02:54:36.056Z,736.63
2016-10-03T02:55:36.035Z,736.63
2016-10-03T02:56:36.017Z,736.73
2016-10-03T02:57:35.988Z,736.71
2016-10-03T02:58:35.969Z,736.86
2016-10-03T02:59:35.948Z,736.68
2016-10-03T03:00:35.928Z,736.83
2016-10-03T03:01:35.916Z,736.64
2016-10-03T03:02:35.895Z,736.91
2016-10-03T03:03:35.869Z,736.8
2016-10-03T03:04:35.855Z,736.67
2016-10-03T03:05:35.835Z,736.91
2016-10-03T03:06:35.809Z,736.6
2016-10-03T03:07:35.796Z,736.86
2016-10-03T03:08:35.769Z,737.03
2016-10-03T03:09:35.755Z,736.74
2016-10-03T03:10:35.728Z,736.83
2016-10-03T03:11:35.712Z,736.71
2016-10-03T03:12:35.695Z,736.84
2016-10-03T03:13:35.666Z,736.82
2016-10-03T03:14:35.647Z,736.77
2016-10-03T03:15:35.627Z,736.77
2016-10-03T03:16:35.605Z,736.47
2016-10-03T03:17:35.592Z,736.77
2016-10-03T03:18:35.565Z,736.97
2016-10-03T03:19:35.552Z,736.54
2016-10-03T03:20:35.523Z,736.7
2016-10-03T03:21:35.511Z,736.78
2016-10-03T03:22:35.485Z,736.5
2016-10-03T03:23:35.471Z,736.82
2016-10-03T03:24:35.442Z,736.79
2016-10-03T03:25:35.429Z,736.59
2016-10-03T03:26:35.402Z,736.53
2016-10-03T03:27:35.387Z,736.94
2016-10-03T03:28:35.368Z,736.8
2016-10-03T03:29:35.341Z,736.84
2016-10-03T03:30:35.319Z,736.7
2016-10-03T03:31:35.310Z,737.01
2016-10-03T03:32:35.279Z,736.71
2016-10-03T03:33:35.258Z,736.83
2016-10-03T03:34:35.238Z,736.83
2016-10-03T03:35:35.232Z,736.65
2016-10-03T03:36:35.202Z,736.69
2016-10-03T03:37:35.183Z,736.67
2016-10-03T03:38:35.154Z,736.88
2016-10-03T03:39:35.141Z,736.98
2016-10-03T03:40:35.113Z,736.85
2016-10-03T03:41:35.094Z,736.76
2016-10-03T03:42:35.072Z,736.85
2016-10-03T03:43:35.052Z,736.95
2016-10-03T03:44:35.039Z,736.4
2016-10-03T03:45:35.019Z,736.67
2016-10-03T03:46:34.991Z,736.8
2016-10-03T03:47:34.977Z,736.68
2016-10-03T03:48:34.958Z,736.56
2016-10-03T03:49:34.936Z,736.66
2016-10-03T03:50:34.909Z,736.68
2016-10-03T03:51:34.896Z,736.3
2016-10-03T03:52:34.876Z,736.36
2016-10-03T03:53:34.855Z,736.79
2016-10-03T03:54:34.827Z,736.8
2016-10-03T03:55:34.815Z,736.51
2016-10-03T03:56:34.789Z,736.65
2016-10-03T03:57:34.766Z,736.67
2016-10-03T03:58:34.761Z,736.77
2016-10-03T03:59:34.736Z,736.56
2016-10-03T04:00:34.705Z,736.7
2016-10-03T04:01:34.691Z,736.83
2016-10-03T04:02:34.672Z,736.81
2016-10-03T04:03:34.644Z,736.62
2016-10-03T04:04:34.631Z,736.56
2016-10-03T04:05:34.611Z,736.56
2016-10-03T04:06:34.584Z,736.77
2016-10-03T04:07:34.571Z,736.89
2016-10-03T04:08:34.549Z,736.96
2016-10-03T04:09:34.529Z,736.74
2016-10-03T04:10:34.502Z,736.71
2016-10-03T04:11:34.488Z,736.65
2016-10-03T04:12:34.468Z,736.55
2016-10-03T04:13:34.447Z,736.63
2016-10-03T04:14:34.421Z,736.74
2016-10-03T04:15:34.399Z,736.75
2016-10-03T04:16:34.386Z,736.84
2016-10-03T04:17:34.366Z,736.77
2016-10-03T04:18:34.341Z,736.81
2016-10-03T04:19:34.325Z,736.93
2016-10-03T04:20:34.299Z,736.89
2016-10-03T04:21:34.279Z,736.86
2016-10-03T04:22:34.258Z,736.87
2016-10-03T04:23:34.239Z,736.8
2016-10-03T04:24:34.219Z,736.86
2016-10-03T04:25:34.200Z,736.85
2016-10-03T04:26:34.179Z,736.85
2016-10-03T04:27:34.160Z,736.5
2016-10-03T04:28:34.140Z,736.85
2016-10-03T04:29:34.121Z,736.81
2016-10-03T04:30:34.108Z,736.94
2016-10-03T04:31:34.082Z,736.87
2016-10-03T04:32:34.063Z,736.8
2016-10-03T04:33:34.050Z,736.7
2016-10-03T04:34:34.030Z,736.77
2016-10-03T04:35:34.010Z,736.8
2016-10-03T04:36:33.992Z,736.58
2016-10-03T04:37:33.963Z,736.72
2016-10-03T04:38:33.952Z,736.67
2016-10-03T04:39:33.933Z,736.75
2016-10-03T04:40:33.906Z,736.71
2016-10-03T04:41:33.894Z,736.55
2016-10-03T04:42:33.867Z,736.67
2016-10-03T04:43:33.847Z,736.75
2016-10-03T04:44:33.834Z,736.88
2016-10-03T04:45:33.809Z,736.83
2016-10-03T04:46:33.795Z,736.79
2016-10-03T04:47:33.776Z,736.85
2016-10-03T04:48:33.756Z,736.93
2016-10-03T04:49:33.730Z,736.66
2016-10-03T04:50:33.718Z,736.83
2016-10-03T04:51:33.698Z,736.8
2016-10-03T04:52:33.686Z,736.87
2016-10-03T04:53:33.658Z,736.89
2016-10-03T04:54:33.639Z,736.92
2016-10-03T04:55:33.619Z,736.86
2016-10-03T04:56:33.593Z,737.04
2016-10-03T04:57:33.573Z,737.03
2016-10-03T04:58:33.561Z,736.9
2016-10-03T04:59:33.540Z,736.93
2016-10-03T05:00:33.514Z,737.16
2016-10-03T05:01:33.496Z,737.06
2016-10-03T05:02:33.475Z,737.01
2016-10-03T05:03:33.457Z,736.78
2016-10-03T05:04:33.443Z,737.16
2016-10-03T05:05:33.418Z,737.13
2016-10-03T05:06:33.404Z,737.16
2016-10-03T05:07:33.385Z,737.06
2016-10-03T05:08:33.359Z,737.05
2016-10-03T05:09:33.347Z,737.12
2016-10-03T05:10:33.327Z,737.09
2016-10-03T05:11:33.307Z,736.99
2016-10-03T05:12:33.282Z,737.03
2016-10-03T05:13:33.261Z,737.06
2016-10-03T05:14:33.250Z,737.19
2016-10-03T05:15:33.225Z,737.16
2016-10-03T05:16:33.204Z,737.36
2016-10-03T05:17:33.191Z,737.14
2016-10-03T05:18:33.165Z,737.25
2016-10-03T05:19:33.153Z,737.14
2016-10-03T05:20:33.127Z,737.07
2016-10-03T05:21:33.107Z,737.17
2016-10-03T05:23:33.068Z,737.05
2016-10-03T05:24:33.055Z,737.11
2016-10-03T05:25:33.028Z,737.13
2016-10-03T05:26:33.010Z,737.03
2016-10-03T05:27:32.989Z,737.06
2016-10-03T05:28:32.976Z,736.97
2016-10-03T05:29:32.956Z,737.06
2016-10-03T05:30:32.938Z,737.04
2016-10-03T05:31:32.917Z,737.11
2016-10-03T05:32:32.890Z,737.01
2016-10-03T05:33:32.871Z,737.1
2016-10-03T05:34:32.852Z,736.93
2016-10-03T05:35:32.838Z,737.1
2016-10-03T05:36:32.819Z,736.99
2016-10-03T05:37:32.793Z,737.14
2016-10-03T05:38:32.780Z,736.98
2016-10-03T05:39:32.753Z,737.22
2016-10-03T05:40:32.740Z,737.12
2016-10-03T05:41:32.721Z,737.16
2016-10-03T05:42:32.694Z,737.19
2016-10-03T05:43:32.682Z,737.2
2016-10-03T05:44:32.663Z,737.36
2016-10-03T05:45:32.637Z,737.41
2016-10-03T05:46:32.624Z,737.21
2016-10-03T05:47:32.605Z,737.31
2016-10-03T05:48:32.579Z,737.39
2016-10-03T05:49:32.561Z,737.34
2016-10-03T05:50:32.541Z,737.36
2016-10-03T05:51:32.522Z,737.38
2016-10-03T05:52:32.510Z,737.31
2016-10-03T05:53:32.491Z,737.43
2016-10-03T05:54:32.471Z,737.47
2016-10-03T05:55:32.445Z,737.44
2016-10-03T05:56:32.626Z,737.53
2016-10-03T05:57:32.414Z,737.51
2016-10-03T05:58:32.389Z,737.57
2016-10-03T05:59:32.378Z,737.48
2016-10-03T06:00:32.352Z,737.51
2016-10-03T06:01:32.341Z,737.58
2016-10-03T06:02:32.313Z,737.54
2016-10-03T06:03:32.301Z,737.54
2016-10-03T06:04:32.275Z,737.59
2016-10-03T06:05:32.262Z,737.45
2016-10-03T06:06:32.244Z,737.5
2016-10-03T06:07:32.225Z,737.55
2016-10-03T06:08:32.205Z,737.52
2016-10-03T06:09:32.186Z,737.55
2016-10-03T06:10:32.168Z,737.55
2016-10-03T06:11:32.142Z,737.44
2016-10-03T06:12:32.122Z,737.47
2016-10-03T06:13:32.111Z,737.46
2016-10-03T06:14:32.092Z,737.38
2016-10-03T06:15:32.073Z,737.48
2016-10-03T06:16:32.054Z,737.51
2016-10-03T06:17:32.030Z,737.52
2016-10-03T06:18:32.016Z,737.56
2016-10-03T06:19:31.997Z,737.52
2016-10-03T06:20:31.972Z,737.54
2016-10-03T06:21:31.960Z,737.58
2016-10-03T06:22:31.934Z,737.62
2016-10-03T06:23:31.920Z,737.63
2016-10-03T06:24:31.894Z,737.64
2016-10-03T06:25:31.882Z,737.72
2016-10-03T06:26:31.862Z,737.73
2016-10-03T06:27:31.837Z,737.74
2016-10-03T06:28:31.817Z,737.71
2016-10-03T06:29:31.798Z,737.67
2016-10-03T06:30:31.785Z,737.74
2016-10-03T06:31:31.766Z,737.77
2016-10-03T06:32:31.746Z,737.74
2016-10-03T06:33:31.728Z,737.65
2016-10-03T06:34:31.699Z,737.62
2016-10-03T06:35:31.688Z,737.63
2016-10-03T06:36:31.669Z,737.67
2016-10-03T06:37:31.843Z,737.7
2016-10-03T06:38:31.629Z,737.42
2016-10-03T06:39:31.812Z,737.4
2016-10-03T06:40:31.591Z,737.29
2016-10-03T06:41:31.570Z,737.64
2016-10-03T06:42:31.545Z,737.75
2016-10-03T06:43:31.525Z,737.69
2016-10-03T06:44:31.513Z,737.74
2016-10-03T06:45:31.485Z,737.74
2016-10-03T06:46:31.465Z,737.78
2016-10-03T06:47:31.453Z,737.86
2016-10-03T06:48:31.432Z,737.89
2016-10-03T06:49:31.413Z,737.84
2016-10-03T06:50:31.393Z,737.79
2016-10-03T06:51:31.374Z,737.93
2016-10-03T06:52:31.345Z,737.85
2016-10-03T06:53:31.334Z,737.81
2016-10-03T06:54:31.307Z,737.91
2016-10-03T06:55:31.294Z,737.88
2016-10-03T06:56:31.274Z,737.89
2016-10-03T06:57:31.254Z,737.92
2016-10-03T06:58:31.228Z,737.92
2016-10-03T06:59:31.206Z,737.91
2016-10-03T07:00:31.189Z,737.89
2016-10-03T07:01:31.168Z,737.95
2016-10-03T07:02:31.150Z,737.87
2016-10-03T07:03:31.129Z,737.88
2016-10-03T07:04:31.109Z,737.89
2016-10-03T07:05:31.091Z,737.83
2016-10-03T07:06:31.069Z,737.97
2016-10-03T07:07:31.050Z,737.97
2016-10-03T07:08:31.036Z,738
2016-10-03T07:09:31.012Z,738.04
2016-10-03T07:10:31.012Z,737.99
2016-10-03T07:11:30.978Z,737.98
2016-10-03T07:12:30.952Z,737.99
2016-10-03T07:13:30.930Z,738.01
2016-10-03T07:14:30.910Z,738.05
2016-10-03T07:15:30.892Z,738.04
2016-10-03T07:16:30.871Z,738.07
2016-10-03T07:17:30.851Z,738.2
2016-10-03T07:18:30.832Z,738.13
2016-10-03T07:19:30.811Z,738.18
2016-10-03T07:20:30.792Z,738.13
2016-10-03T07:21:30.770Z,738.17
2016-10-03T07:22:30.758Z,738.22
2016-10-03T07:23:30.732Z,738.24
2016-10-03T07:24:30.712Z,738.23
2016-10-03T07:25:30.692Z,738.32
2016-10-03T07:26:30.679Z,738.34
2016-10-03T07:27:30.653Z,738.27
2016-10-03T07:28:30.634Z,738.27
2016-10-03T07:29:30.612Z,738.34
2016-10-03T07:30:30.593Z,738.38
2016-10-03T07:31:30.573Z,738.23
2016-10-03T07:32:30.553Z,738.32
2016-10-03T07:33:30.533Z,738.35
2016-10-03T07:34:30.520Z,738.41
2016-10-03T07:35:30.494Z,738.3
2016-10-03T07:36:30.481Z,738.4
2016-10-03T07:37:30.462Z,738.32
2016-10-03T07:38:30.443Z,738.27
2016-10-03T07:39:30.416Z,738.34
2016-10-03T07:40:30.396Z,738.34
2016-10-03T07:41:30.383Z,738.32
2016-10-03T07:42:30.363Z,738.33
2016-10-03T07:43:30.344Z,738.27
2016-10-03T07:44:30.317Z,738.25
2016-10-03T07:45:30.298Z,737.91
2016-10-03T07:46:30.277Z,738.09
2016-10-03T07:47:30.264Z,738.14
2016-10-03T07:48:30.244Z,738.09
2016-10-03T07:49:30.225Z,738.16
2016-10-03T07:50:30.205Z,738.18
2016-10-03T07:51:30.178Z,738.26
2016-10-03T07:52:30.158Z,738.24
2016-10-03T07:53:30.139Z,738.29
2016-10-03T07:54:30.120Z,738.38
2016-10-03T07:55:30.107Z,738.23
2016-10-03T07:56:30.087Z,738.45
2016-10-03T07:57:30.061Z,738.3
2016-10-03T07:58:30.042Z,738.43
2016-10-03T07:59:30.022Z,738.46
2016-10-03T08:00:30.004Z,738.48
2016-10-03T08:01:29.983Z,738.47
2016-10-03T08:02:29.965Z,738.48
2016-10-03T08:03:29.953Z,738.45
2016-10-03T08:04:29.934Z,738.45
2016-10-03T08:05:29.914Z,738.42
2016-10-03T08:06:29.896Z,738.49
2016-10-03T08:07:29.877Z,738.5
2016-10-03T08:08:29.863Z,738.48
2016-10-03T08:09:29.833Z,738.47
2016-10-03T08:10:29.812Z,738.51
2016-10-03T08:11:29.796Z,738.53
2016-10-03T08:12:29.783Z,738.55
2016-10-03T08:13:29.757Z,738.44
2016-10-03T08:14:29.745Z,738.42
2016-10-03T08:15:29.726Z,738.5
2016-10-03T08:16:29.700Z,738.48
2016-10-03T08:17:29.682Z,738.55
2016-10-03T08:18:29.670Z,738.56
2016-10-03T08:19:29.652Z,738.48
2016-10-03T08:20:29.626Z,738.46
2016-10-03T08:21:29.614Z,738.46
2016-10-03T08:22:29.589Z,738.58
2016-10-03T08:23:29.571Z,738.51
2016-10-03T08:24:29.558Z,738.47
2016-10-03T08:25:29.541Z,738.58
2016-10-03T08:26:29.522Z,738.56
2016-10-03T08:27:29.504Z,738.61
2016-10-03T08:28:29.486Z,738.56
2016-10-03T08:29:29.467Z,738.53
2016-10-03T08:30:29.450Z,738.56
2016-10-03T08:31:29.425Z,738.62
2016-10-03T08:32:29.417Z,738.65
2016-10-03T08:34:29.377Z,738.63
2016-10-03T08:35:29.352Z,738.64
2016-10-03T08:36:29.334Z,738.58
2016-10-03T08:37:29.324Z,738.62
2016-10-03T08:38:29.304Z,738.65
2016-10-03T08:39:29.288Z,738.62
2016-10-03T08:40:29.264Z,738.66
2016-10-03T08:41:29.250Z,738.68
2016-10-03T08:42:29.234Z,738.69
2016-10-03T08:43:29.210Z,738.76
2016-10-03T08:44:29.194Z,738.74
2016-10-03T08:45:29.175Z,738.8
2016-10-03T08:46:29.165Z,738.77
2016-10-03T08:47:29.146Z,738.8
2016-10-03T08:48:29.125Z,738.78
2016-10-03T08:49:29.113Z,738.85
2016-10-03T08:50:29.091Z,738.81
2016-10-03T08:51:29.073Z,738.83
2016-10-03T08:52:29.059Z,738.84
2016-10-03T08:53:29.047Z,738.83
2016-10-03T08:54:29.025Z,738.8
2016-10-03T08:55:29.008Z,738.87
2016-10-03T08:56:28.991Z,738.82
2016-10-03T08:57:28.975Z,738.83
2016-10-03T08:58:28.966Z,738.89
2016-10-03T08:59:28.943Z,738.87
2016-10-03T09:00:28.933Z,738.78
2016-10-03T09:01:28.910Z,738.85
2016-10-03T09:02:28.901Z,738.83
2016-10-03T09:03:28.879Z,738.79
2016-10-03T09:04:28.868Z,738.78
2016-10-03T09:05:28.852Z,738.71
2016-10-03T09:06:28.830Z,738.83
2016-10-03T09:07:28.820Z,738.84
2016-10-03T09:08:28.803Z,738.77
2016-10-03T09:09:28.780Z,738.78
2016-10-03T09:10:28.772Z,738.86
2016-10-03T09:11:28.754Z,738.81
2016-10-03T09:12:28.740Z,738.83
2016-10-03T09:13:28.723Z,738.77
2016-10-03T09:14:28.707Z,738.84
2016-10-03T09:15:28.684Z,738.82
2016-10-03T09:16:28.669Z,738.85
2016-10-03T09:17:28.653Z,738.9
2016-10-03T09:18:28.635Z,738.9
2016-10-03T09:19:28.620Z,738.9
2016-10-03T09:20:28.611Z,738.94
2016-10-03T09:21:28.595Z,738.91
2016-10-03T09:22:28.579Z,738.92
2016-10-03T09:23:28.563Z,738.84
2016-10-03T09:24:28.548Z,738.87
2016-10-03T09:25:28.532Z,738.89
2016-10-03T09:26:28.510Z,738.89
2016-10-03T09:27:28.501Z,738.97
2016-10-03T09:28:28.479Z,738.94
2016-10-03T09:29:28.469Z,738.81
2016-10-03T09:30:28.457Z,738.99
2016-10-03T09:31:28.431Z,738.9
2016-10-03T09:32:28.422Z,739.01
2016-10-03T09:33:28.414Z,738.99
2016-10-03T09:34:28.388Z,738.9
2016-10-03T09:35:28.367Z,738.97
2016-10-03T09:36:28.348Z,738.98
2016-10-03T09:37:28.334Z,738.99
2016-10-03T09:38:28.317Z,739.01
2016-10-03T09:39:28.309Z,739.01
2016-10-03T09:40:28.287Z,738.92
2016-10-03T09:41:28.271Z,739.05
2016-10-03T09:42:28.263Z,739
2016-10-03T09:43:28.240Z,738.97
2016-10-03T09:44:28.232Z,739
2016-10-03T09:45:28.210Z,739.04
2016-10-03T09:46:28.195Z,739.07
2016-10-03T09:47:28.178Z,739.06
2016-10-03T09:48:28.171Z,739.1
2016-10-03T09:49:28.149Z,739.08
2016-10-03T09:50:28.141Z,739.05
2016-10-03T09:51:28.117Z,739.04
2016-10-03T09:52:28.110Z,738.99
2016-10-03T09:53:28.087Z,739.11
2016-10-03T09:54:28.072Z,739.1
2016-10-03T09:55:28.055Z,739.07
2016-10-03T09:56:28.046Z,739.1
2016-10-03T09:57:28.031Z,739.04
2016-10-03T09:58:28.007Z,739.12
2016-10-03T09:59:27.999Z,739.14
2016-10-03T10:00:27.975Z,739.07
2016-10-03T10:01:27.966Z,739.12
2016-10-03T10:02:27.950Z,739.12
2016-10-03T10:03:27.938Z,739.07
2016-10-03T10:04:27.912Z,739.11
2016-10-03T10:05:27.898Z,739.11
2016-10-03T10:06:27.887Z,739.07
2016-10-03T10:07:27.865Z,739.09
2016-10-03T10:08:27.850Z,739.08
2016-10-03T10:09:27.841Z,739.16
2016-10-03T10:10:27.826Z,739.14
2016-10-03T10:11:27.812Z,739.14
2016-10-03T10:12:27.791Z,739.03
2016-10-03T10:13:27.781Z,739.17
2016-10-03T10:14:27.759Z,739.09
2016-10-03T10:15:27.744Z,739.12
2016-10-03T10:16:27.735Z,739.09
2016-10-03T10:17:27.719Z,739.07
2016-10-03T10:18:27.697Z,739.14
2016-10-03T10:19:27.687Z,739.09
2016-10-03T10:20:27.665Z,739.14
2016-10-03T10:21:27.655Z,739.09
2016-10-03T10:22:27.633Z,739.08
2016-10-03T10:23:27.624Z,739.18
2016-10-03T10:24:27.611Z,739.18
2016-10-03T10:25:27.585Z,739.08
2016-10-03T10:26:27.577Z,739.03
2016-10-03T10:27:27.562Z,739.21
2016-10-03T10:28:27.545Z,739.07
2016-10-03T10:29:27.522Z,739.09
2016-10-03T10:30:27.516Z,739.11
2016-10-03T10:31:27.491Z,739.13
2016-10-03T10:32:27.481Z,739.03
2016-10-03T10:33:27.458Z,738.92
2016-10-03T10:34:27.450Z,739.25
2016-10-03T10:35:27.426Z,739.21
2016-10-03T10:36:27.411Z,739.15
2016-10-03T10:37:27.400Z,739.31
2016-10-03T10:38:27.377Z,739.34
2016-10-03T10:39:27.367Z,739.32
2016-10-03T10:40:27.343Z,739.34
2016-10-03T10:41:27.334Z,739.4
2016-10-03T10:42:27.315Z,739.4
2016-10-03T10:43:27.300Z,739.32
2016-10-03T10:44:27.290Z,739.22
2016-10-03T10:45:27.268Z,739.32
2016-10-03T10:46:27.251Z,739.35
2016-10-03T10:47:27.234Z,739.28
2016-10-03T10:48:27.213Z,739.35
2016-10-03T10:49:27.195Z,739.39
2016-10-03T10:50:27.179Z,739.44
2016-10-03T10:51:27.169Z,739.47
2016-10-03T10:52:27.145Z,739.47
2016-10-03T10:53:27.129Z,739.41
2016-10-03T10:54:27.119Z,739.4
2016-10-03T10:55:27.103Z,739.35
2016-10-03T10:56:27.081Z,739.41
2016-10-03T10:57:27.061Z,739.49
2016-10-03T10:58:27.054Z,739.54
2016-10-03T10:59:27.039Z,739.47
2016-10-03T11:00:27.018Z,739.5
2016-10-03T11:01:26.993Z,739.45
2016-10-03T11:02:26.983Z,739.41
2016-10-03T11:03:26.964Z,739.51
2016-10-03T11:04:26.939Z,739.58
2016-10-03T11:05:26.926Z,739.56
2016-10-03T11:06:26.911Z,739.56
2016-10-03T11:07:26.886Z,739.59
2016-10-03T11:08:26.868Z,739.58
2016-10-03T11:09:26.849Z,739.51
2016-10-03T11:10:26.832Z,739.47
2016-10-03T11:11:26.813Z,739.45
2016-10-03T11:12:26.796Z,739.34
2016-10-03T11:13:26.778Z,739.33
2016-10-03T11:14:26.759Z,739.36
2016-10-03T11:15:26.748Z,739.33
2016-10-03T11:16:26.729Z,739.45
2016-10-03T11:17:26.705Z,739.38
2016-10-03T11:18:26.687Z,739.43
2016-10-03T11:19:26.676Z,739.34
2016-10-03T11:20:26.657Z,739.5
2016-10-03T11:21:26.639Z,739.41
2016-10-03T11:22:26.622Z,739.42
2016-10-03T11:23:26.597Z,739.45
2016-10-03T11:24:26.578Z,739.44
2016-10-03T11:25:26.563Z,739.43
2016-10-03T11:26:26.550Z,739.43
2016-10-03T11:27:26.527Z,739.4
2016-10-03T11:28:26.508Z,739.33
2016-10-03T11:29:26.498Z,739.41
2016-10-03T11:30:26.480Z,739.41
2016-10-03T11:31:26.456Z,739.43
2016-10-03T11:32:26.440Z,739.47
2016-10-03T11:33:26.428Z,739.44
2016-10-03T11:34:26.404Z,739.48
2016-10-03T11:35:26.387Z,739.5
2016-10-03T11:36:26.370Z,739.5
2016-10-03T11:37:26.354Z,739.46
2016-10-03T11:38:26.337Z,739.46
2016-10-03T11:39:26.320Z,739.47
2016-10-03T11:40:26.310Z,739.57
2016-10-03T11:41:26.293Z,739.52
2016-10-03T11:42:26.270Z,739.6
2016-10-03T11:43:26.255Z,739.65
2016-10-03T11:44:26.238Z,739.73
2016-10-03T11:45:26.228Z,739.66
2016-10-03T11:46:26.212Z,739.62
2016-10-03T11:47:26.189Z,739.71
2016-10-03T11:48:26.170Z,739.65
2016-10-03T11:49:26.158Z,739.49
2016-10-03T11:50:26.140Z,739.53
2016-10-03T11:51:26.123Z,739.44
2016-10-03T11:52:26.105Z,739.55
2016-10-03T11:53:26.088Z,739.55
2016-10-03T11:54:26.074Z,739.61
2016-10-03T11:55:26.063Z,739.6
2016-10-03T11:56:26.047Z,739.57
2016-10-03T11:57:26.023Z,739.56
2016-10-03T11:58:26.006Z,739.57
2016-10-03T11:59:25.998Z,739.55
2016-10-03T12:00:25.980Z,739.48
2016-10-03T12:01:25.964Z,739.55
2016-10-03T12:03:25.925Z,739.55
2016-10-03T12:04:25.908Z,739.6
2016-10-03T12:05:25.898Z,739.62
2016-10-03T12:06:25.874Z,739.59
2016-10-03T12:07:25.857Z,739.61
2016-10-03T12:08:25.849Z,739.48
2016-10-03T12:09:25.824Z,739.39
2016-10-03T12:10:25.815Z,739.42
2016-10-03T12:11:25.793Z,739.4
2016-10-03T12:12:25.783Z,739.23
2016-10-03T12:13:25.766Z,739.22
2016-10-03T12:14:25.740Z,739.37
2016-10-03T12:15:25.732Z,739.41
2016-10-03T12:16:25.708Z,739.39
2016-10-03T12:17:25.698Z,739.35
2016-10-03T12:18:25.681Z,739.3
2016-10-03T12:19:25.665Z,739.25
2016-10-03T12:20:25.648Z,739.29
2016-10-03T12:21:25.624Z,739.36
2016-10-03T12:22:25.614Z,739.26
2016-10-03T12:23:25.598Z,739.25
2016-10-03T12:24:25.586Z,739.23
2016-10-03T12:25:25.556Z,739.1
2016-10-03T12:26:25.541Z,739.19
2016-10-03T12:27:25.531Z,739.25
2016-10-03T12:28:25.513Z,739.28
2016-10-03T12:29:25.497Z,739.11
2016-10-03T12:30:25.480Z,739.18
2016-10-03T12:31:25.463Z,739.45
2016-10-03T12:32:25.437Z,739.36
2016-10-03T12:33:25.420Z,739.48